sensor_id;sensor_type;location;lat;lon;timestamp;P1;durP1;ratioP1;P2;durP2;ratioP2
63093;SDS011;49183;51.380;0.098;2022-08-19T00:01:44;5.30;;;3.30;;
63093;SDS011;49183;51.380;0.098;2022-08-19T00:04:47;7.93;;;2.80;;
63093;SDS011;49183;51.380;0.098;2022-08-19T00:07:49;10.90;;;3.17;;
63093;SDS011;49183;51.380;0.098;2022-08-19T00:10:50;4.13;;;2.83;;
63093;SDS011;49183;51.380;0.098;2022-08-19T00:13:54;6.88;;;3.13;;
63093;SDS011;49183;51.380;0.098;2022-08-19T00:16:55;4.45;;;2.70;;
63093;SDS011;49183;51.380;0.098;2022-08-19T00:19:56;6.45;;;3.85;;
63093;SDS011;49183;51.380;0.098;2022-08-19T00:22:57;6.20;;;3.33;;
63093;SDS011;49183;51.380;0.098;2022-08-19T00:25:58;8.68;;;3.53;;
63093;SDS011;49183;51.380;0.098;2022-08-19T00:28:59;7.82;;;3.70;;
63093;SDS011;49183;51.380;0.098;2022-08-19T00:32:00;6.55;;;3.50;;
63093;SDS011;49183;51.380;0.098;2022-08-19T00:35:04;5.90;;;3.08;;
63093;SDS011;49183;51.380;0.098;2022-08-19T00:38:05;10.38;;;4.55;;
63093;SDS011;49183;51.380;0.098;2022-08-19T00:41:24;12.25;;;3.38;;
63093;SDS011;49183;51.380;0.098;2022-08-19T00:44:27;9.48;;;2.67;;
63093;SDS011;49183;51.380;0.098;2022-08-19T00:47:28;8.50;;;2.58;;
63093;SDS011;49183;51.380;0.098;2022-08-19T00:50:29;14.13;;;2.60;;
63093;SDS011;49183;51.380;0.098;2022-08-19T00:53:37;6.85;;;2.65;;
63093;SDS011;49183;51.380;0.098;2022-08-19T00:56:39;10.48;;;2.92;;
63093;SDS011;49183;51.380;0.098;2022-08-19T00:59:42;10.25;;;2.55;;
63093;SDS011;49183;51.380;0.098;2022-08-19T01:02:49;12.43;;;2.85;;
63093;SDS011;49183;51.380;0.098;2022-08-19T01:05:50;10.25;;;2.65;;
63093;SDS011;49183;51.380;0.098;2022-08-19T01:08:54;14.07;;;3.13;;
63093;SDS011;49183;51.380;0.098;2022-08-19T01:11:56;11.18;;;3.33;;
63093;SDS011;49183;51.380;0.098;2022-08-19T01:14:56;7.00;;;2.42;;
63093;SDS011;49183;51.380;0.098;2022-08-19T01:18:04;11.73;;;2.63;;
63093;SDS011;49183;51.380;0.098;2022-08-19T01:24:19;10.65;;;2.72;;
63093;SDS011;49183;51.380;0.098;2022-08-19T01:27:38;6.47;;;1.95;;
63093;SDS011;49183;51.380;0.098;2022-08-19T01:30:41;11.88;;;2.47;;
63093;SDS011;49183;51.380;0.098;2022-08-19T01:33:42;12.77;;;2.55;;
63093;SDS011;49183;51.380;0.098;2022-08-19T01:36:43;8.90;;;2.28;;
63093;SDS011;49183;51.380;0.098;2022-08-19T01:39:47;10.45;;;2.97;;
63093;SDS011;49183;51.380;0.098;2022-08-19T01:42:53;13.35;;;2.63;;
63093;SDS011;49183;51.380;0.098;2022-08-19T01:45:54;12.00;;;2.33;;
63093;SDS011;49183;51.380;0.098;2022-08-19T01:48:55;11.30;;;3.45;;
63093;SDS011;49183;51.380;0.098;2022-08-19T01:51:56;17.67;;;3.17;;
63093;SDS011;49183;51.380;0.098;2022-08-19T01:54:57;11.88;;;2.45;;
63093;SDS011;49183;51.380;0.098;2022-08-19T01:57:58;12.25;;;2.70;;
63093;SDS011;49183;51.380;0.098;2022-08-19T02:01:03;9.10;;;2.35;;
63093;SDS011;49183;51.380;0.098;2022-08-19T02:04:06;10.35;;;3.03;;
63093;SDS011;49183;51.380;0.098;2022-08-19T02:07:08;14.43;;;2.92;;
63093;SDS011;49183;51.380;0.098;2022-08-19T02:10:11;9.07;;;2.75;;
63093;SDS011;49183;51.380;0.098;2022-08-19T02:13:15;12.98;;;2.65;;
63093;SDS011;49183;51.380;0.098;2022-08-19T02:16:17;15.35;;;2.95;;
63093;SDS011;49183;51.380;0.098;2022-08-19T02:19:19;12.68;;;2.70;;
63093;SDS011;49183;51.380;0.098;2022-08-19T02:22:20;8.32;;;2.20;;
63093;SDS011;49183;51.380;0.098;2022-08-19T02:25:21;13.52;;;2.88;;
63093;SDS011;49183;51.380;0.098;2022-08-19T02:28:22;8.95;;;2.22;;
63093;SDS011;49183;51.380;0.098;2022-08-19T02:31:23;12.32;;;2.40;;
63093;SDS011;49183;51.380;0.098;2022-08-19T02:34:26;9.55;;;3.10;;
63093;SDS011;49183;51.380;0.098;2022-08-19T02:37:27;10.85;;;2.25;;
63093;SDS011;49183;51.380;0.098;2022-08-19T02:40:50;11.60;;;2.63;;
63093;SDS011;49183;51.380;0.098;2022-08-19T02:44:04;10.63;;;2.40;;
63093;SDS011;49183;51.380;0.098;2022-08-19T02:47:17;13.85;;;3.67;;
63093;SDS011;49183;51.380;0.098;2022-08-19T02:50:19;10.10;;;2.60;;
63093;SDS011;49183;51.380;0.098;2022-08-19T02:53:20;18.02;;;3.70;;
63093;SDS011;49183;51.380;0.098;2022-08-19T02:56:23;12.13;;;2.53;;
63093;SDS011;49183;51.380;0.098;2022-08-19T02:59:24;9.18;;;2.88;;
63093;SDS011;49183;51.380;0.098;2022-08-19T03:02:18;14.20;;;2.30;;
63093;SDS011;49183;51.380;0.098;2022-08-19T03:05:13;9.82;;;2.15;;
63093;SDS011;49183;51.380;0.098;2022-08-19T03:08:34;13.30;;;2.78;;
63093;SDS011;49183;51.380;0.098;2022-08-19T03:11:36;13.63;;;3.20;;
63093;SDS011;49183;51.380;0.098;2022-08-19T03:14:39;8.02;;;2.50;;
63093;SDS011;49183;51.380;0.098;2022-08-19T03:17:40;17.67;;;3.40;;
63093;SDS011;49183;51.380;0.098;2022-08-19T03:20:47;7.00;;;2.33;;
63093;SDS011;49183;51.380;0.098;2022-08-19T03:23:50;11.05;;;3.08;;
63093;SDS011;49183;51.380;0.098;2022-08-19T03:26:54;13.13;;;3.20;;
63093;SDS011;49183;51.380;0.098;2022-08-19T03:29:56;11.95;;;3.17;;
63093;SDS011;49183;51.380;0.098;2022-08-19T03:32:57;12.75;;;2.60;;
63093;SDS011;49183;51.380;0.098;2022-08-19T03:36:12;8.35;;;2.60;;
63093;SDS011;49183;51.380;0.098;2022-08-19T03:39:16;9.68;;;3.25;;
63093;SDS011;49183;51.380;0.098;2022-08-19T03:42:18;7.32;;;2.55;;
63093;SDS011;49183;51.380;0.098;2022-08-19T03:45:35;9.77;;;3.53;;
63093;SDS011;49183;51.380;0.098;2022-08-19T03:48:36;12.15;;;3.40;;
63093;SDS011;49183;51.380;0.098;2022-08-19T03:51:38;10.50;;;3.08;;
63093;SDS011;49183;51.380;0.098;2022-08-19T03:54:39;12.35;;;3.22;;
63093;SDS011;49183;51.380;0.098;2022-08-19T03:57:40;11.02;;;3.85;;
63093;SDS011;49183;51.380;0.098;2022-08-19T04:00:45;15.18;;;4.55;;
63093;SDS011;49183;51.380;0.098;2022-08-19T04:03:46;13.68;;;4.38;;
63093;SDS011;49183;51.380;0.098;2022-08-19T04:06:49;12.68;;;4.07;;
63093;SDS011;49183;51.380;0.098;2022-08-19T04:09:51;15.75;;;4.00;;
63093;SDS011;49183;51.380;0.098;2022-08-19T04:12:56;13.35;;;3.70;;
63093;SDS011;49183;51.380;0.098;2022-08-19T04:15:57;15.60;;;4.70;;
63093;SDS011;49183;51.380;0.098;2022-08-19T04:18:59;18.33;;;3.20;;
63093;SDS011;49183;51.380;0.098;2022-08-19T04:22:02;13.48;;;4.20;;
63093;SDS011;49183;51.380;0.098;2022-08-19T04:25:05;6.93;;;2.83;;
63093;SDS011;49183;51.380;0.098;2022-08-19T04:28:06;13.68;;;3.60;;
63093;SDS011;49183;51.380;0.098;2022-08-19T04:31:12;11.32;;;3.42;;
63093;SDS011;49183;51.380;0.098;2022-08-19T04:34:17;11.60;;;3.40;;
63093;SDS011;49183;51.380;0.098;2022-08-19T04:37:20;14.50;;;3.60;;
63093;SDS011;49183;51.380;0.098;2022-08-19T04:40:21;16.52;;;3.63;;
63093;SDS011;49183;51.380;0.098;2022-08-19T04:43:41;12.13;;;3.25;;
63093;SDS011;49183;51.380;0.098;2022-08-19T04:46:43;15.15;;;3.33;;
63093;SDS011;49183;51.380;0.098;2022-08-19T04:49:45;14.23;;;3.10;;
63093;SDS011;49183;51.380;0.098;2022-08-19T04:52:46;13.27;;;3.60;;
63093;SDS011;49183;51.380;0.098;2022-08-19T04:55:47;12.95;;;3.85;;
63093;SDS011;49183;51.380;0.098;2022-08-19T04:58:48;11.60;;;3.25;;
63093;SDS011;49183;51.380;0.098;2022-08-19T05:01:50;13.02;;;3.65;;
63093;SDS011;49183;51.380;0.098;2022-08-19T05:04:55;11.55;;;3.13;;
63093;SDS011;49183;51.380;0.098;2022-08-19T05:07:58;9.98;;;3.13;;
63093;SDS011;49183;51.380;0.098;2022-08-19T05:11:01;8.52;;;3.70;;
63093;SDS011;49183;51.380;0.098;2022-08-19T05:14:12;6.68;;;3.47;;
63093;SDS011;49183;51.380;0.098;2022-08-19T05:17:14;7.95;;;2.97;;
63093;SDS011;49183;51.380;0.098;2022-08-19T05:20:20;14.35;;;3.20;;
63093;SDS011;49183;51.380;0.098;2022-08-19T05:23:39;17.65;;;4.30;;
63093;SDS011;49183;51.380;0.098;2022-08-19T05:26:41;10.93;;;4.38;;
63093;SDS011;49183;51.380;0.098;2022-08-19T05:29:44;15.15;;;3.65;;
63093;SDS011;49183;51.380;0.098;2022-08-19T05:32:45;14.38;;;4.07;;
63093;SDS011;49183;51.380;0.098;2022-08-19T05:35:46;15.90;;;5.57;;
63093;SDS011;49183;51.380;0.098;2022-08-19T05:38:47;7.90;;;2.63;;
63093;SDS011;49183;51.380;0.098;2022-08-19T05:41:49;7.43;;;2.78;;
63093;SDS011;49183;51.380;0.098;2022-08-19T05:44:57;14.48;;;3.40;;
63093;SDS011;49183;51.380;0.098;2022-08-19T05:47:59;10.45;;;3.05;;
63093;SDS011;49183;51.380;0.098;2022-08-19T05:51:06;16.35;;;3.53;;
63093;SDS011;49183;51.380;0.098;2022-08-19T05:54:13;6.80;;;2.33;;
63093;SDS011;49183;51.380;0.098;2022-08-19T05:57:14;7.55;;;2.45;;
63093;SDS011;49183;51.380;0.098;2022-08-19T06:00:15;8.63;;;2.22;;
63093;SDS011;49183;51.380;0.098;2022-08-19T06:03:16;13.45;;;2.97;;
63093;SDS011;49183;51.380;0.098;2022-08-19T06:06:17;12.05;;;2.65;;
63093;SDS011;49183;51.380;0.098;2022-08-19T06:09:19;20.90;;;3.72;;
63093;SDS011;49183;51.380;0.098;2022-08-19T06:12:22;12.55;;;3.40;;
63093;SDS011;49183;51.380;0.098;2022-08-19T06:15:25;14.07;;;3.25;;
63093;SDS011;49183;51.380;0.098;2022-08-19T06:18:26;9.40;;;2.90;;
63093;SDS011;49183;51.380;0.098;2022-08-19T06:21:35;11.63;;;2.90;;
63093;SDS011;49183;51.380;0.098;2022-08-19T06:24:38;12.55;;;2.63;;
63093;SDS011;49183;51.380;0.098;2022-08-19T06:27:39;14.98;;;2.83;;
63093;SDS011;49183;51.380;0.098;2022-08-19T06:31:05;17.10;;;2.88;;
63093;SDS011;49183;51.380;0.098;2022-08-19T06:34:07;12.18;;;2.72;;
63093;SDS011;49183;51.380;0.098;2022-08-19T06:37:08;11.98;;;3.05;;
63093;SDS011;49183;51.380;0.098;2022-08-19T06:40:09;10.02;;;4.50;;
63093;SDS011;49183;51.380;0.098;2022-08-19T06:43:11;11.50;;;2.85;;
63093;SDS011;49183;51.380;0.098;2022-08-19T06:46:15;15.45;;;2.88;;
63093;SDS011;49183;51.380;0.098;2022-08-19T06:49:21;11.50;;;2.97;;
63093;SDS011;49183;51.380;0.098;2022-08-19T06:52:24;14.15;;;3.50;;
63093;SDS011;49183;51.380;0.098;2022-08-19T06:55:25;10.32;;;3.45;;
63093;SDS011;49183;51.380;0.098;2022-08-19T06:58:26;10.63;;;3.78;;
63093;SDS011;49183;51.380;0.098;2022-08-19T07:01:27;20.63;;;3.08;;
63093;SDS011;49183;51.380;0.098;2022-08-19T07:04:29;12.52;;;2.45;;
63093;SDS011;49183;51.380;0.098;2022-08-19T07:07:32;15.85;;;2.88;;
63093;SDS011;49183;51.380;0.098;2022-08-19T07:10:33;7.32;;;2.13;;
63093;SDS011;49183;51.380;0.098;2022-08-19T07:13:34;18.60;;;3.00;;
63093;SDS011;49183;51.380;0.098;2022-08-19T07:16:40;8.82;;;2.30;;
63093;SDS011;49183;51.380;0.098;2022-08-19T07:19:41;9.68;;;2.78;;
63093;SDS011;49183;51.380;0.098;2022-08-19T07:22:43;12.52;;;2.38;;
63093;SDS011;49183;51.380;0.098;2022-08-19T07:25:44;11.80;;;2.78;;
63093;SDS011;49183;51.380;0.098;2022-08-19T07:28:45;12.45;;;3.42;;
63093;SDS011;49183;51.380;0.098;2022-08-19T07:31:49;7.25;;;2.75;;
63093;SDS011;49183;51.380;0.098;2022-08-19T07:34:57;8.38;;;2.08;;
63093;SDS011;49183;51.380;0.098;2022-08-19T07:37:59;19.35;;;5.22;;
63093;SDS011;49183;51.380;0.098;2022-08-19T07:41:00;16.45;;;4.15;;
63093;SDS011;49183;51.380;0.098;2022-08-19T07:44:01;16.02;;;3.95;;
63093;SDS011;49183;51.380;0.098;2022-08-19T07:47:02;10.35;;;2.63;;
63093;SDS011;49183;51.380;0.098;2022-08-19T07:50:24;7.90;;;2.67;;
63093;SDS011;49183;51.380;0.098;2022-08-19T07:53:25;7.85;;;1.80;;
63093;SDS011;49183;51.380;0.098;2022-08-19T07:56:29;10.45;;;2.30;;
63093;SDS011;49183;51.380;0.098;2022-08-19T07:59:30;13.68;;;2.72;;
63093;SDS011;49183;51.380;0.098;2022-08-19T08:02:31;11.45;;;2.22;;
63093;SDS011;49183;51.380;0.098;2022-08-19T08:05:33;15.52;;;2.72;;
63093;SDS011;49183;51.380;0.098;2022-08-19T08:08:52;13.38;;;2.42;;
63093;SDS011;49183;51.380;0.098;2022-08-19T08:12:10;8.27;;;2.13;;
63093;SDS011;49183;51.380;0.098;2022-08-19T08:15:21;14.18;;;3.17;;
63093;SDS011;49183;51.380;0.098;2022-08-19T08:18:28;14.38;;;2.42;;
63093;SDS011;49183;51.380;0.098;2022-08-19T08:21:39;11.60;;;2.83;;
63093;SDS011;49183;51.380;0.098;2022-08-19T08:24:40;9.07;;;2.85;;
63093;SDS011;49183;51.380;0.098;2022-08-19T08:27:42;9.77;;;2.63;;
63093;SDS011;49183;51.380;0.098;2022-08-19T08:30:46;9.43;;;2.50;;
63093;SDS011;49183;51.380;0.098;2022-08-19T08:33:55;12.80;;;2.63;;
63093;SDS011;49183;51.380;0.098;2022-08-19T08:36:56;7.45;;;2.10;;
63093;SDS011;49183;51.380;0.098;2022-08-19T08:39:57;8.55;;;1.80;;
63093;SDS011;49183;51.380;0.098;2022-08-19T08:43:03;14.05;;;3.00;;
63093;SDS011;49183;51.380;0.098;2022-08-19T08:46:11;10.75;;;2.22;;
63093;SDS011;49183;51.380;0.098;2022-08-19T08:49:24;15.43;;;3.47;;
63093;SDS011;49183;51.380;0.098;2022-08-19T08:52:33;8.82;;;2.30;;
63093;SDS011;49183;51.380;0.098;2022-08-19T08:55:37;13.32;;;2.63;;
63093;SDS011;49183;51.380;0.098;2022-08-19T08:58:59;11.55;;;2.97;;
63093;SDS011;49183;51.380;0.098;2022-08-19T09:02:07;6.93;;;2.23;;
63093;SDS011;49183;51.380;0.098;2022-08-19T09:05:09;11.18;;;2.45;;
63093;SDS011;49183;51.380;0.098;2022-08-19T09:15:35;8.77;;;1.90;;
63093;SDS011;49183;51.380;0.098;2022-08-19T09:18:43;13.02;;;2.50;;
63093;SDS011;49183;51.380;0.098;2022-08-19T09:21:54;9.95;;;2.65;;
63093;SDS011;49183;51.380;0.098;2022-08-19T09:24:56;9.32;;;2.50;;
63093;SDS011;49183;51.380;0.098;2022-08-19T09:27:58;11.10;;;2.70;;
63093;SDS011;49183;51.380;0.098;2022-08-19T09:31:08;10.82;;;2.38;;
63093;SDS011;49183;51.380;0.098;2022-08-19T09:34:13;7.40;;;2.22;;
63093;SDS011;49183;51.380;0.098;2022-08-19T09:37:14;4.97;;;1.52;;
63093;SDS011;49183;51.380;0.098;2022-08-19T09:40:16;9.07;;;1.95;;
63093;SDS011;49183;51.380;0.098;2022-08-19T09:43:24;15.93;;;2.40;;
63093;SDS011;49183;51.380;0.098;2022-08-19T09:46:33;6.32;;;1.67;;
63093;SDS011;49183;51.380;0.098;2022-08-19T09:49:34;7.18;;;1.70;;
63093;SDS011;49183;51.380;0.098;2022-08-19T09:52:35;10.15;;;2.85;;
63093;SDS011;49183;51.380;0.098;2022-08-19T09:55:43;6.15;;;1.40;;
63093;SDS011;49183;51.380;0.098;2022-08-19T09:58:44;9.80;;;2.50;;
63093;SDS011;49183;51.380;0.098;2022-08-19T10:01:45;6.30;;;1.70;;
63093;SDS011;49183;51.380;0.098;2022-08-19T10:04:56;6.50;;;1.77;;
63093;SDS011;49183;51.380;0.098;2022-08-19T10:08:17;4.80;;;1.50;;
63093;SDS011;49183;51.380;0.098;2022-08-19T10:11:23;8.45;;;1.75;;
63093;SDS011;49183;51.380;0.098;2022-08-19T10:14:26;4.55;;;1.33;;
63093;SDS011;49183;51.380;0.098;2022-08-19T10:17:27;5.53;;;1.48;;
63093;SDS011;49183;51.380;0.098;2022-08-19T10:20:40;7.43;;;1.45;;
63093;SDS011;49183;51.380;0.098;2022-08-19T10:23:42;6.05;;;1.80;;
63093;SDS011;49183;51.380;0.098;2022-08-19T10:26:45;12.38;;;2.03;;
63093;SDS011;49183;51.380;0.098;2022-08-19T10:29:46;10.13;;;2.10;;
63093;SDS011;49183;51.380;0.098;2022-08-19T10:32:47;10.07;;;2.00;;
63093;SDS011;49183;51.380;0.098;2022-08-19T10:36:16;6.82;;;1.50;;
63093;SDS011;49183;51.380;0.098;2022-08-19T10:39:20;5.47;;;1.42;;
63093;SDS011;49183;51.380;0.098;2022-08-19T10:42:29;8.00;;;1.30;;
63093;SDS011;49183;51.380;0.098;2022-08-19T10:45:30;4.68;;;1.23;;
63093;SDS011;49183;51.380;0.098;2022-08-19T10:48:38;5.10;;;1.30;;
63093;SDS011;49183;51.380;0.098;2022-08-19T10:51:39;4.97;;;1.42;;
63093;SDS011;49183;51.380;0.098;2022-08-19T10:58:26;6.18;;;2.40;;
63093;SDS011;49183;51.380;0.098;2022-08-19T11:01:27;9.07;;;1.98;;
63093;SDS011;49183;51.380;0.098;2022-08-19T11:04:29;6.88;;;1.63;;
63093;SDS011;49183;51.380;0.098;2022-08-19T11:07:32;9.98;;;2.28;;
63093;SDS011;49183;51.380;0.098;2022-08-19T11:10:33;7.50;;;1.40;;
63093;SDS011;49183;51.380;0.098;2022-08-19T11:13:37;8.68;;;2.05;;
63093;SDS011;49183;51.380;0.098;2022-08-19T11:16:40;9.13;;;1.58;;
63093;SDS011;49183;51.380;0.098;2022-08-19T11:19:42;7.00;;;1.80;;
63093;SDS011;49183;51.380;0.098;2022-08-19T11:22:43;5.25;;;1.60;;
63093;SDS011;49183;51.380;0.098;2022-08-19T11:25:44;7.38;;;1.55;;
63093;SDS011;49183;51.380;0.098;2022-08-19T11:28:48;6.75;;;1.75;;
63093;SDS011;49183;51.380;0.098;2022-08-19T11:31:50;4.63;;;1.27;;
63093;SDS011;49183;51.380;0.098;2022-08-19T11:34:51;7.40;;;2.17;;
63093;SDS011;49183;51.380;0.098;2022-08-19T11:37:45;5.60;;;1.20;;
63093;SDS011;49183;51.380;0.098;2022-08-19T11:40:53;5.47;;;1.80;;
63093;SDS011;49183;51.380;0.098;2022-08-19T11:44:01;4.60;;;1.30;;
63093;SDS011;49183;51.380;0.098;2022-08-19T11:47:03;3.45;;;1.10;;
63093;SDS011;49183;51.380;0.098;2022-08-19T11:50:05;2.85;;;0.90;;
63093;SDS011;49183;51.380;0.098;2022-08-19T11:53:06;3.72;;;1.10;;
63093;SDS011;49183;51.380;0.098;2022-08-19T11:56:08;3.97;;;0.98;;
63093;SDS011;49183;51.380;0.098;2022-08-19T11:59:09;1.95;;;0.88;;
63093;SDS011;49183;51.380;0.098;2022-08-19T12:02:10;2.72;;;1.00;;
63093;SDS011;49183;51.380;0.098;2022-08-19T12:05:11;6.97;;;1.15;;
63093;SDS011;49183;51.380;0.098;2022-08-19T12:08:12;4.40;;;1.00;;
63093;SDS011;49183;51.380;0.098;2022-08-19T12:11:14;2.90;;;1.00;;
63093;SDS011;49183;51.380;0.098;2022-08-19T12:14:20;3.33;;;0.95;;
63093;SDS011;49183;51.380;0.098;2022-08-19T12:17:21;2.67;;;0.80;;
63093;SDS011;49183;51.380;0.098;2022-08-19T12:20:25;2.63;;;0.88;;
63093;SDS011;49183;51.380;0.098;2022-08-19T12:23:26;3.67;;;1.02;;
63093;SDS011;49183;51.380;0.098;2022-08-19T12:26:27;3.50;;;0.88;;
63093;SDS011;49183;51.380;0.098;2022-08-19T12:29:39;5.85;;;1.02;;
63093;SDS011;49183;51.380;0.098;2022-08-19T12:32:40;5.00;;;1.20;;
63093;SDS011;49183;51.380;0.098;2022-08-19T12:35:41;4.18;;;1.10;;
63093;SDS011;49183;51.380;0.098;2022-08-19T12:38:44;5.20;;;1.00;;
63093;SDS011;49183;51.380;0.098;2022-08-19T12:41:45;4.93;;;1.10;;
63093;SDS011;49183;51.380;0.098;2022-08-19T12:44:46;4.00;;;1.00;;
63093;SDS011;49183;51.380;0.098;2022-08-19T12:47:47;6.00;;;0.98;;
63093;SDS011;49183;51.380;0.098;2022-08-19T12:51:09;4.25;;;1.27;;
63093;SDS011;49183;51.380;0.098;2022-08-19T12:54:15;3.05;;;1.05;;
63093;SDS011;49183;51.380;0.098;2022-08-19T12:57:16;4.28;;;1.00;;
63093;SDS011;49183;51.380;0.098;2022-08-19T13:00:20;2.70;;;0.90;;
63093;SDS011;49183;51.380;0.098;2022-08-19T13:03:22;7.30;;;1.75;;
63093;SDS011;49183;51.380;0.098;2022-08-19T13:06:26;6.82;;;1.52;;
63093;SDS011;49183;51.380;0.098;2022-08-19T13:09:27;3.05;;;0.90;;
63093;SDS011;49183;51.380;0.098;2022-08-19T13:12:28;4.05;;;1.10;;
63093;SDS011;49183;51.380;0.098;2022-08-19T13:15:29;4.45;;;1.05;;
63093;SDS011;49183;51.380;0.098;2022-08-19T13:18:34;2.95;;;1.05;;
63093;SDS011;49183;51.380;0.098;2022-08-19T13:21:35;4.25;;;0.80;;
63093;SDS011;49183;51.380;0.098;2022-08-19T13:24:32;2.33;;;0.70;;
63093;SDS011;49183;51.380;0.098;2022-08-19T13:27:33;2.72;;;0.65;;
63093;SDS011;49183;51.380;0.098;2022-08-19T13:30:35;3.47;;;0.73;;
63093;SDS011;49183;51.380;0.098;2022-08-19T13:33:55;3.38;;;1.13;;
63093;SDS011;49183;51.380;0.098;2022-08-19T13:36:58;3.83;;;0.73;;
63093;SDS011;49183;51.380;0.098;2022-08-19T13:40:00;2.22;;;0.75;;
63093;SDS011;49183;51.380;0.098;2022-08-19T13:43:01;1.58;;;0.40;;
63093;SDS011;49183;51.380;0.098;2022-08-19T13:46:10;3.53;;;0.77;;
63093;SDS011;49183;51.380;0.098;2022-08-19T13:49:12;4.28;;;0.77;;
63093;SDS011;49183;51.380;0.098;2022-08-19T13:52:13;2.75;;;0.93;;
63093;SDS011;49183;51.380;0.098;2022-08-19T13:55:16;2.67;;;0.85;;
63093;SDS011;49183;51.380;0.098;2022-08-19T13:58:17;4.28;;;0.65;;
63093;SDS011;49183;51.380;0.098;2022-08-19T14:01:19;4.53;;;0.88;;
63093;SDS011;49183;51.380;0.098;2022-08-19T14:04:22;4.22;;;0.52;;
63093;SDS011;49183;51.380;0.098;2022-08-19T14:07:23;2.55;;;0.57;;
63093;SDS011;49183;51.380;0.098;2022-08-19T14:10:24;2.75;;;0.43;;
63093;SDS011;49183;51.380;0.098;2022-08-19T14:13:27;2.65;;;0.68;;
63093;SDS011;49183;51.380;0.098;2022-08-19T14:16:28;2.58;;;1.02;;
63093;SDS011;49183;51.380;0.098;2022-08-19T14:19:29;2.03;;;0.45;;
63093;SDS011;49183;51.380;0.098;2022-08-19T14:22:34;8.30;;;0.80;;
63093;SDS011;49183;51.380;0.098;2022-08-19T14:25:39;4.05;;;0.77;;
63093;SDS011;49183;51.380;0.098;2022-08-19T14:28:40;1.40;;;0.85;;
63093;SDS011;49183;51.380;0.098;2022-08-19T14:31:42;2.72;;;0.68;;
63093;SDS011;49183;51.380;0.098;2022-08-19T14:34:43;0.77;;;0.30;;
63093;SDS011;49183;51.380;0.098;2022-08-19T14:37:45;2.20;;;0.70;;
63093;SDS011;49183;51.380;0.098;2022-08-19T14:40:49;2.20;;;0.70;;
63093;SDS011;49183;51.380;0.098;2022-08-19T14:43:51;2.28;;;0.52;;
63093;SDS011;49183;51.380;0.098;2022-08-19T14:46:54;2.22;;;0.70;;
63093;SDS011;49183;51.380;0.098;2022-08-19T14:49:55;7.25;;;0.77;;
63093;SDS011;49183;51.380;0.098;2022-08-19T14:53:05;3.13;;;0.50;;
63093;SDS011;49183;51.380;0.098;2022-08-19T14:56:10;2.30;;;0.80;;
63093;SDS011;49183;51.380;0.098;2022-08-19T14:59:14;4.32;;;0.88;;
63093;SDS011;49183;51.380;0.098;2022-08-19T15:02:15;11.18;;;0.73;;
63093;SDS011;49183;51.380;0.098;2022-08-19T15:05:21;2.25;;;0.63;;
63093;SDS011;49183;51.380;0.098;2022-08-19T15:08:22;5.25;;;0.95;;
63093;SDS011;49183;51.380;0.098;2022-08-19T15:11:24;3.30;;;0.80;;
63093;SDS011;49183;51.380;0.098;2022-08-19T15:14:26;4.35;;;1.25;;
63093;SDS011;49183;51.380;0.098;2022-08-19T15:17:28;4.22;;;1.00;;
63093;SDS011;49183;51.380;0.098;2022-08-19T15:20:32;5.88;;;1.00;;
63093;SDS011;49183;51.380;0.098;2022-08-19T15:23:35;3.47;;;0.98;;
63093;SDS011;49183;51.380;0.098;2022-08-19T15:29:44;1.65;;;0.80;;
63093;SDS011;49183;51.380;0.098;2022-08-19T15:32:47;2.45;;;0.65;;
63093;SDS011;49183;51.380;0.098;2022-08-19T15:35:49;3.03;;;0.85;;
63093;SDS011;49183;51.380;0.098;2022-08-19T15:38:50;2.47;;;0.85;;
63093;SDS011;49183;51.380;0.098;2022-08-19T15:41:51;3.30;;;0.73;;
63093;SDS011;49183;51.380;0.098;2022-08-19T15:44:53;3.03;;;0.70;;
63093;SDS011;49183;51.380;0.098;2022-08-19T15:47:54;3.67;;;0.70;;
63093;SDS011;49183;51.380;0.098;2022-08-19T15:50:55;4.32;;;1.15;;
63093;SDS011;49183;51.380;0.098;2022-08-19T15:53:57;4.35;;;0.90;;
63093;SDS011;49183;51.380;0.098;2022-08-19T15:56:59;2.72;;;0.88;;
63093;SDS011;49183;51.380;0.098;2022-08-19T16:00:15;2.35;;;0.88;;
63093;SDS011;49183;51.380;0.098;2022-08-19T16:03:38;6.10;;;1.13;;
63093;SDS011;49183;51.380;0.098;2022-08-19T16:07:01;2.60;;;0.85;;
63093;SDS011;49183;51.380;0.098;2022-08-19T16:10:09;2.63;;;0.70;;
63093;SDS011;49183;51.380;0.098;2022-08-19T16:13:15;3.05;;;0.93;;
63093;SDS011;49183;51.380;0.098;2022-08-19T16:16:20;1.98;;;0.88;;
63093;SDS011;49183;51.380;0.098;2022-08-19T16:19:21;2.65;;;0.60;;
63093;SDS011;49183;51.380;0.098;2022-08-19T16:22:27;1.65;;;0.60;;
63093;SDS011;49183;51.380;0.098;2022-08-19T16:25:29;1.25;;;0.50;;
63093;SDS011;49183;51.380;0.098;2022-08-19T16:28:31;4.35;;;1.40;;
63093;SDS011;49183;51.380;0.098;2022-08-19T16:31:34;2.42;;;0.75;;
63093;SDS011;49183;51.380;0.098;2022-08-19T16:34:37;4.80;;;0.65;;
63093;SDS011;49183;51.380;0.098;2022-08-19T16:37:40;1.65;;;0.60;;
63093;SDS011;49183;51.380;0.098;2022-08-19T16:40:41;4.90;;;1.25;;
63093;SDS011;49183;51.380;0.098;2022-08-19T16:43:46;1.98;;;0.88;;
63093;SDS011;49183;51.380;0.098;2022-08-19T16:46:48;1.67;;;0.70;;
63093;SDS011;49183;51.380;0.098;2022-08-19T16:49:52;2.10;;;0.63;;
63093;SDS011;49183;51.380;0.098;2022-08-19T16:52:46;2.45;;;0.73;;
63093;SDS011;49183;51.380;0.098;2022-08-19T16:55:50;3.42;;;0.90;;
63093;SDS011;49183;51.380;0.098;2022-08-19T16:58:51;5.03;;;0.90;;
63093;SDS011;49183;51.380;0.098;2022-08-19T17:01:52;3.03;;;0.68;;
63093;SDS011;49183;51.380;0.098;2022-08-19T17:04:55;2.95;;;0.80;;
63093;SDS011;49183;51.380;0.098;2022-08-19T17:07:56;5.55;;;0.93;;
63093;SDS011;49183;51.380;0.098;2022-08-19T17:10:57;5.38;;;1.08;;
63093;SDS011;49183;51.380;0.098;2022-08-19T17:14:04;2.63;;;0.80;;
63093;SDS011;49183;51.380;0.098;2022-08-19T17:17:05;3.97;;;2.17;;
63093;SDS011;49183;51.380;0.098;2022-08-19T17:20:06;6.20;;;1.42;;
63093;SDS011;49183;51.380;0.098;2022-08-19T17:23:08;4.03;;;0.90;;
63093;SDS011;49183;51.380;0.098;2022-08-19T17:26:29;4.82;;;1.20;;
63093;SDS011;49183;51.380;0.098;2022-08-19T17:29:31;5.80;;;1.42;;
63093;SDS011;49183;51.380;0.098;2022-08-19T17:32:32;4.47;;;0.77;;
63093;SDS011;49183;51.380;0.098;2022-08-19T17:35:33;5.00;;;1.05;;
63093;SDS011;49183;51.380;0.098;2022-08-19T17:38:36;5.22;;;1.20;;
63093;SDS011;49183;51.380;0.098;2022-08-19T17:41:37;3.55;;;1.17;;
63093;SDS011;49183;51.380;0.098;2022-08-19T17:44:38;2.45;;;0.88;;
63093;SDS011;49183;51.380;0.098;2022-08-19T17:47:39;3.85;;;1.15;;
63093;SDS011;49183;51.380;0.098;2022-08-19T17:50:40;4.85;;;1.30;;
63093;SDS011;49183;51.380;0.098;2022-08-19T17:53:41;3.50;;;1.48;;
63093;SDS011;49183;51.380;0.098;2022-08-19T17:56:42;4.88;;;1.63;;
63093;SDS011;49183;51.380;0.098;2022-08-19T17:59:45;4.93;;;1.10;;
63093;SDS011;49183;51.380;0.098;2022-08-19T18:02:54;4.85;;;1.15;;
63093;SDS011;49183;51.380;0.098;2022-08-19T18:05:57;4.00;;;1.90;;
63093;SDS011;49183;51.380;0.098;2022-08-19T18:08:58;3.83;;;1.23;;
63093;SDS011;49183;51.380;0.098;2022-08-19T18:11:59;4.20;;;0.93;;
63093;SDS011;49183;51.380;0.098;2022-08-19T18:15:03;1.73;;;0.80;;
63093;SDS011;49183;51.380;0.098;2022-08-19T18:18:06;2.70;;;0.95;;
63093;SDS011;49183;51.380;0.098;2022-08-19T18:21:07;4.03;;;1.25;;
63093;SDS011;49183;51.380;0.098;2022-08-19T18:24:09;6.88;;;1.58;;
63093;SDS011;49183;51.380;0.098;2022-08-19T18:27:10;5.05;;;1.30;;
63093;SDS011;49183;51.380;0.098;2022-08-19T18:30:11;4.35;;;1.20;;
63093;SDS011;49183;51.380;0.098;2022-08-19T18:33:14;3.88;;;1.10;;
63093;SDS011;49183;51.380;0.098;2022-08-19T18:36:15;3.70;;;1.23;;
63093;SDS011;49183;51.380;0.098;2022-08-19T18:39:37;4.15;;;1.10;;